sensor_id;sensor_type;location;lat;lon;timestamp;temperature;humidity
12089;DHT22;6107;49.078;8.578;2023-06-22T00:01:11;21.00;99.90
12089;DHT22;6107;49.078;8.578;2023-06-22T00:03:37;21.00;99.90
12089;DHT22;6107;49.078;8.578;2023-06-22T00:06:02;21.10;99.90
12089;DHT22;6107;49.078;8.578;2023-06-22T00:08:28;21.10;99.90
12089;DHT22;6107;49.078;8.578;2023-06-22T00:10:54;21.10;99.90
12089;DHT22;6107;49.078;8.578;2023-06-22T00:13:19;21.30;99.90
12089;DHT22;6107;49.078;8.578;2023-06-22T00:15:45;21.30;99.90
12089;DHT22;6107;49.078;8.578;2023-06-22T00:18:10;21.30;99.90
12089;DHT22;6107;49.078;8.578;2023-06-22T00:20:37;21.30;99.90
12089;DHT22;6107;49.078;8.578;2023-06-22T00:23:04;21.30;99.90
12089;DHT22;6107;49.078;8.578;2023-06-22T00:25:34;21.30;99.90
12089;DHT22;6107;49.078;8.578;2023-06-22T00:28:00;21.10;99.90
12089;DHT22;6107;49.078;8.578;2023-06-22T00:30:25;21.10;99.90
12089;DHT22;6107;49.078;8.578;2023-06-22T00:32:51;21.10;99.90
12089;DHT22;6107;49.078;8.578;2023-06-22T00:35:16;20.90;99.90
12089;DHT22;6107;49.078;8.578;2023-06-22T00:37:42;20.70;99.90
12089;DHT22;6107;49.078;8.578;2023-06-22T00:40:11;20.90;99.90
12089;DHT22;6107;49.078;8.578;2023-06-22T00:42:38;21.20;99.90
12089;DHT22;6107;49.078;8.578;2023-06-22T00:45:05;21.30;99.90
12089;DHT22;6107;49.078;8.578;2023-06-22T00:47:31;21.50;99.90
12089;DHT22;6107;49.078;8.578;2023-06-22T00:49:56;21.40;99.90
12089;DHT22;6107;49.078;8.578;2023-06-22T00:52:23;21.30;99.90
12089;DHT22;6107;49.078;8.578;2023-06-22T00:54:52;21.10;99.90
12089;DHT22;6107;49.078;8.578;2023-06-22T00:57:19;21.20;99.90
12089;DHT22;6107;49.078;8.578;2023-06-22T00:59:47;21.10;99.90
12089;DHT22;6107;49.078;8.578;2023-06-22T01:02:13;21.10;99.90
12089;DHT22;6107;49.078;8.578;2023-06-22T01:04:39;21.00;99.90
12089;DHT22;6107;49.078;8.578;2023-06-22T01:10:03;20.40;99.90
12089;DHT22;6107;49.078;8.578;2023-06-22T01:12:37;20.60;99.90
12089;DHT22;6107;49.078;8.578;2023-06-22T01:15:28;20.60;99.90
12089;DHT22;6107;49.078;8.578;2023-06-22T01:17:56;20.70;99.90
12089;DHT22;6107;49.078;8.578;2023-06-22T01:20:23;20.50;99.90
12089;DHT22;6107;49.078;8.578;2023-06-22T01:23:11;20.70;99.90
12089;DHT22;6107;49.078;8.578;2023-06-22T01:25:46;20.70;99.90
12089;DHT22;6107;49.078;8.578;2023-06-22T01:28:29;20.60;99.90
12089;DHT22;6107;49.078;8.578;2023-06-22T01:30:56;20.70;99.90
12089;DHT22;6107;49.078;8.578;2023-06-22T01:33:35;20.60;99.90
12089;DHT22;6107;49.078;8.578;2023-06-22T01:36:02;20.50;99.90
12089;DHT22;6107;49.078;8.578;2023-06-22T01:38:29;20.50;99.90
12089;DHT22;6107;49.078;8.578;2023-06-22T01:40:56;20.40;99.90
12089;DHT22;6107;49.078;8.578;2023-06-22T01:43:22;20.20;99.90
12089;DHT22;6107;49.078;8.578;2023-06-22T01:45:50;20.20;99.90
12089;DHT22;6107;49.078;8.578;2023-06-22T01:48:17;20.30;99.90
12089;DHT22;6107;49.078;8.578;2023-06-22T01:50:42;20.40;99.90
12089;DHT22;6107;49.078;8.578;2023-06-22T01:53:08;20.50;99.90
12089;DHT22;6107;49.078;8.578;2023-06-22T01:55:34;20.30;99.90
12089;DHT22;6107;49.078;8.578;2023-06-22T01:57:59;20.30;99.90
12089;DHT22;6107;49.078;8.578;2023-06-22T02:00:28;20.30;99.90
12089;DHT22;6107;49.078;8.578;2023-06-22T02:02:59;20.30;99.90
12089;DHT22;6107;49.078;8.578;2023-06-22T02:05:31;20.30;99.90
12089;DHT22;6107;49.078;8.578;2023-06-22T02:08:06;20.40;99.90
12089;DHT22;6107;49.078;8.578;2023-06-22T02:10:32;20.20;99.90
12089;DHT22;6107;49.078;8.578;2023-06-22T02:13:00;20.30;99.90
12089;DHT22;6107;49.078;8.578;2023-06-22T02:15:26;20.20;99.90
12089;DHT22;6107;49.078;8.578;2023-06-22T02:17:52;20.20;99.90
12089;DHT22;6107;49.078;8.578;2023-06-22T02:20:17;20.10;99.90
12089;DHT22;6107;49.078;8.578;2023-06-22T02:22:43;20.00;99.90
12089;DHT22;6107;49.078;8.578;2023-06-22T02:25:08;20.00;99.90
12089;DHT22;6107;49.078;8.578;2023-06-22T02:27:34;19.80;99.90
12089;DHT22;6107;49.078;8.578;2023-06-22T02:30:01;19.90;99.90
12089;DHT22;6107;49.078;8.578;2023-06-22T02:32:26;20.00;99.90
12089;DHT22;6107;49.078;8.578;2023-06-22T02:34:52;20.00;99.90
12089;DHT22;6107;49.078;8.578;2023-06-22T02:37:18;19.90;99.90
12089;DHT22;6107;49.078;8.578;2023-06-22T02:39:44;19.70;99.90
12089;DHT22;6107;49.078;8.578;2023-06-22T02:42:09;19.90;99.90
12089;DHT22;6107;49.078;8.578;2023-06-22T02:44:38;20.00;99.90
12089;DHT22;6107;49.078;8.578;2023-06-22T02:47:04;20.00;99.90
12089;DHT22;6107;49.078;8.578;2023-06-22T02:49:30;19.90;99.90
12089;DHT22;6107;49.078;8.578;2023-06-22T02:51:55;19.80;99.90
12089;DHT22;6107;49.078;8.578;2023-06-22T02:54:21;19.70;99.90
12089;DHT22;6107;49.078;8.578;2023-06-22T02:56:46;19.80;99.90
12089;DHT22;6107;49.078;8.578;2023-06-22T02:59:13;19.70;99.90
12089;DHT22;6107;49.078;8.578;2023-06-22T03:01:38;19.70;99.90
12089;DHT22;6107;49.078;8.578;2023-06-22T03:04:07;19.60;99.90
12089;DHT22;6107;49.078;8.578;2023-06-22T03:06:33;19.60;99.90
12089;DHT22;6107;49.078;8.578;2023-06-22T03:09:00;19.60;99.90
12089;DHT22;6107;49.078;8.578;2023-06-22T03:11:26;19.80;99.90
12089;DHT22;6107;49.078;8.578;2023-06-22T03:13:52;19.70;99.90
12089;DHT22;6107;49.078;8.578;2023-06-22T03:16:18;19.50;99.90
12089;DHT22;6107;49.078;8.578;2023-06-22T03:18:44;19.40;99.90
12089;DHT22;6107;49.078;8.578;2023-06-22T03:21:10;19.40;99.90
12089;DHT22;6107;49.078;8.578;2023-06-22T03:23:35;19.40;99.90
12089;DHT22;6107;49.078;8.578;2023-06-22T03:26:01;19.50;99.90
12089;DHT22;6107;49.078;8.578;2023-06-22T03:28:27;19.50;99.90
12089;DHT22;6107;49.078;8.578;2023-06-22T03:30:53;19.60;99.90
12089;DHT22;6107;49.078;8.578;2023-06-22T03:33:18;19.50;99.90
12089;DHT22;6107;49.078;8.578;2023-06-22T03:35:44;19.50;99.90
12089;DHT22;6107;49.078;8.578;2023-06-22T03:38:09;19.40;99.90
12089;DHT22;6107;49.078;8.578;2023-06-22T03:40:35;19.50;99.90
12089;DHT22;6107;49.078;8.578;2023-06-22T03:43:00;19.40;99.90
12089;DHT22;6107;49.078;8.578;2023-06-22T03:45:26;19.40;99.90
12089;DHT22;6107;49.078;8.578;2023-06-22T03:47:51;19.50;99.90
12089;DHT22;6107;49.078;8.578;2023-06-22T03:50:17;19.50;99.90
12089;DHT22;6107;49.078;8.578;2023-06-22T03:52:42;19.70;99.90
12089;DHT22;6107;49.078;8.578;2023-06-22T03:55:08;19.60;99.90
12089;DHT22;6107;49.078;8.578;2023-06-22T03:57:34;19.60;99.90
12089;DHT22;6107;49.078;8.578;2023-06-22T03:59:59;19.60;99.90
12089;DHT22;6107;49.078;8.578;2023-06-22T04:02:25;19.60;99.90
12089;DHT22;6107;49.078;8.578;2023-06-22T04:04:51;19.50;99.90
12089;DHT22;6107;49.078;8.578;2023-06-22T04:07:16;19.60;99.90
12089;DHT22;6107;49.078;8.578;2023-06-22T04:09:43;19.70;99.90
12089;DHT22;6107;49.078;8.578;2023-06-22T04:12:09;19.70;99.90
12089;DHT22;6107;49.078;8.578;2023-06-22T04:14:34;19.70;99.90
12089;DHT22;6107;49.078;8.578;2023-06-22T04:17:00;19.70;99.90
12089;DHT22;6107;49.078;8.578;2023-06-22T04:19:25;19.80;99.90
12089;DHT22;6107;49.078;8.578;2023-06-22T04:21:51;19.80;99.90
12089;DHT22;6107;49.078;8.578;2023-06-22T04:24:16;19.80;99.90
12089;DHT22;6107;49.078;8.578;2023-06-22T04:26:42;19.90;99.90
12089;DHT22;6107;49.078;8.578;2023-06-22T04:29:08;19.80;99.90
12089;DHT22;6107;49.078;8.578;2023-06-22T04:31:36;19.90;99.90
12089;DHT22;6107;49.078;8.578;2023-06-22T04:34:06;19.80;99.90
12089;DHT22;6107;49.078;8.578;2023-06-22T04:36:34;19.90;99.90
12089;DHT22;6107;49.078;8.578;2023-06-22T04:39:06;19.80;99.90
12089;DHT22;6107;49.078;8.578;2023-06-22T04:41:32;19.90;99.90
12089;DHT22;6107;49.078;8.578;2023-06-22T04:44:13;19.90;99.90
12089;DHT22;6107;49.078;8.578;2023-06-22T04:46:39;19.90;99.90
12089;DHT22;6107;49.078;8.578;2023-06-22T04:49:09;19.90;99.90
12089;DHT22;6107;49.078;8.578;2023-06-22T04:51:42;19.80;99.90
12089;DHT22;6107;49.078;8.578;2023-06-22T04:54:09;19.90;99.90
12089;DHT22;6107;49.078;8.578;2023-06-22T04:56:35;19.90;99.90
12089;DHT22;6107;49.078;8.578;2023-06-22T04:59:01;20.00;99.90
12089;DHT22;6107;49.078;8.578;2023-06-22T05:01:28;20.00;99.90
12089;DHT22;6107;49.078;8.578;2023-06-22T05:03:54;20.00;99.90
12089;DHT22;6107;49.078;8.578;2023-06-22T05:06:22;20.00;99.90
12089;DHT22;6107;49.078;8.578;2023-06-22T05:08:53;20.10;99.90
12089;DHT22;6107;49.078;8.578;2023-06-22T05:11:25;20.10;99.90
12089;DHT22;6107;49.078;8.578;2023-06-22T05:13:52;20.10;99.90
12089;DHT22;6107;49.078;8.578;2023-06-22T05:16:17;20.20;99.90
12089;DHT22;6107;49.078;8.578;2023-06-22T05:18:43;20.30;99.90
12089;DHT22;6107;49.078;8.578;2023-06-22T05:21:09;20.30;99.90
12089;DHT22;6107;49.078;8.578;2023-06-22T05:23:34;20.30;99.90
12089;DHT22;6107;49.078;8.578;2023-06-22T05:26:00;20.50;99.90
12089;DHT22;6107;49.078;8.578;2023-06-22T05:28:25;20.50;99.90
12089;DHT22;6107;49.078;8.578;2023-06-22T05:30:51;20.60;99.90
12089;DHT22;6107;49.078;8.578;2023-06-22T05:33:16;20.60;99.90
12089;DHT22;6107;49.078;8.578;2023-06-22T05:35:42;20.70;99.90
12089;DHT22;6107;49.078;8.578;2023-06-22T05:38:07;20.80;99.90
12089;DHT22;6107;49.078;8.578;2023-06-22T05:40:33;20.80;99.90
12089;DHT22;6107;49.078;8.578;2023-06-22T05:42:58;20.90;99.90
12089;DHT22;6107;49.078;8.578;2023-06-22T05:45:26;21.00;99.90
12089;DHT22;6107;49.078;8.578;2023-06-22T05:47:51;21.00;99.90
12089;DHT22;6107;49.078;8.578;2023-06-22T05:50:16;21.00;99.90
12089;DHT22;6107;49.078;8.578;2023-06-22T05:52:42;21.10;99.90
12089;DHT22;6107;49.078;8.578;2023-06-22T05:55:08;21.20;99.90
12089;DHT22;6107;49.078;8.578;2023-06-22T05:57:33;21.40;99.90
12089;DHT22;6107;49.078;8.578;2023-06-22T05:59:59;21.50;99.90
12089;DHT22;6107;49.078;8.578;2023-06-22T06:02:24;21.60;99.90
12089;DHT22;6107;49.078;8.578;2023-06-22T06:04:50;21.60;99.90
12089;DHT22;6107;49.078;8.578;2023-06-22T06:07:18;21.70;99.90
12089;DHT22;6107;49.078;8.578;2023-06-22T06:09:43;21.80;99.90
12089;DHT22;6107;49.078;8.578;2023-06-22T06:12:09;21.90;99.90
12089;DHT22;6107;49.078;8.578;2023-06-22T06:14:34;21.90;99.90
12089;DHT22;6107;49.078;8.578;2023-06-22T06:17:00;22.00;99.90
12089;DHT22;6107;49.078;8.578;2023-06-22T06:19:25;22.10;99.90
12089;DHT22;6107;49.078;8.578;2023-06-22T06:21:50;22.20;99.90
12089;DHT22;6107;49.078;8.578;2023-06-22T06:24:16;22.20;99.90
12089;DHT22;6107;49.078;8.578;2023-06-22T06:26:42;22.20;99.90
12089;DHT22;6107;49.078;8.578;2023-06-22T06:29:07;22.20;99.90
12089;DHT22;6107;49.078;8.578;2023-06-22T06:31:33;22.30;99.90
12089;DHT22;6107;49.078;8.578;2023-06-22T06:33:58;22.40;99.90
12089;DHT22;6107;49.078;8.578;2023-06-22T06:36:24;22.40;99.90
12089;DHT22;6107;49.078;8.578;2023-06-22T06:38:49;22.40;99.90
12089;DHT22;6107;49.078;8.578;2023-06-22T06:41:16;22.40;99.90
12089;DHT22;6107;49.078;8.578;2023-06-22T06:43:41;22.50;99.90
12089;DHT22;6107;49.078;8.578;2023-06-22T06:46:10;22.50;99.90
12089;DHT22;6107;49.078;8.578;2023-06-22T06:48:35;22.70;99.90
12089;DHT22;6107;49.078;8.578;2023-06-22T06:51:01;22.80;99.90
12089;DHT22;6107;49.078;8.578;2023-06-22T06:53:26;23.00;99.90
12089;DHT22;6107;49.078;8.578;2023-06-22T06:55:53;23.20;99.90
12089;DHT22;6107;49.078;8.578;2023-06-22T06:58:19;23.30;99.90
12089;DHT22;6107;49.078;8.578;2023-06-22T07:00:44;23.30;99.90
12089;DHT22;6107;49.078;8.578;2023-06-22T07:03:10;23.40;99.90
12089;DHT22;6107;49.078;8.578;2023-06-22T07:05:35;23.40;99.90
12089;DHT22;6107;49.078;8.578;2023-06-22T07:08:01;23.50;99.90
12089;DHT22;6107;49.078;8.578;2023-06-22T07:10:28;23.80;99.90
12089;DHT22;6107;49.078;8.578;2023-06-22T07:12:54;23.80;99.90
12089;DHT22;6107;49.078;8.578;2023-06-22T07:43:14;24.40;99.90
12089;DHT22;6107;49.078;8.578;2023-06-22T07:45:39;25.10;99.90
12089;DHT22;6107;49.078;8.578;2023-06-22T07:48:07;25.30;99.90
12089;DHT22;6107;49.078;8.578;2023-06-22T07:50:32;25.40;99.90
12089;DHT22;6107;49.078;8.578;2023-06-22T07:52:58;25.50;99.90
12089;DHT22;6107;49.078;8.578;2023-06-22T07:55:23;25.70;99.90
12089;DHT22;6107;49.078;8.578;2023-06-22T07:57:49;25.60;99.90
12089;DHT22;6107;49.078;8.578;2023-06-22T08:00:17;25.80;99.90
12089;DHT22;6107;49.078;8.578;2023-06-22T08:02:45;25.90;99.90
12089;DHT22;6107;49.078;8.578;2023-06-22T08:05:11;25.90;99.90
12089;DHT22;6107;49.078;8.578;2023-06-22T08:07:37;26.10;99.90
12089;DHT22;6107;49.078;8.578;2023-06-22T08:10:09;26.20;99.90
12089;DHT22;6107;49.078;8.578;2023-06-22T08:12:35;26.30;99.90
12089;DHT22;6107;49.078;8.578;2023-06-22T08:15:01;26.40;99.90
12089;DHT22;6107;49.078;8.578;2023-06-22T08:17:26;26.50;99.90
12089;DHT22;6107;49.078;8.578;2023-06-22T08:19:52;26.60;99.90
12089;DHT22;6107;49.078;8.578;2023-06-22T08:22:18;26.70;99.90
12089;DHT22;6107;49.078;8.578;2023-06-22T08:24:44;26.90;99.90
12089;DHT22;6107;49.078;8.578;2023-06-22T08:27:10;26.90;99.90
12089;DHT22;6107;49.078;8.578;2023-06-22T08:29:40;27.10;99.90
12089;DHT22;6107;49.078;8.578;2023-06-22T08:32:08;27.20;99.90
12089;DHT22;6107;49.078;8.578;2023-06-22T08:34:34;27.40;99.90
12089;DHT22;6107;49.078;8.578;2023-06-22T08:37:00;27.50;99.90
12089;DHT22;6107;49.078;8.578;2023-06-22T08:39:26;27.40;99.90
12089;DHT22;6107;49.078;8.578;2023-06-22T08:41:51;27.40;99.90
12089;DHT22;6107;49.078;8.578;2023-06-22T08:44:18;27.30;99.90
12089;DHT22;6107;49.078;8.578;2023-06-22T08:46:45;27.00;99.90
12089;DHT22;6107;49.078;8.578;2023-06-22T08:49:10;26.80;99.90
12089;DHT22;6107;49.078;8.578;2023-06-22T08:51:36;26.80;99.90
12089;DHT22;6107;49.078;8.578;2023-06-22T08:54:02;27.10;99.90
12089;DHT22;6107;49.078;8.578;2023-06-22T08:56:27;27.30;99.90
12089;DHT22;6107;49.078;8.578;2023-06-22T08:58:53;27.40;99.90
12089;DHT22;6107;49.078;8.578;2023-06-22T09:01:18;27.60;99.90
12089;DHT22;6107;49.078;8.578;2023-06-22T09:03:45;27.70;99.90
12089;DHT22;6107;49.078;8.578;2023-06-22T09:06:20;27.90;99.90
12089;DHT22;6107;49.078;8.578;2023-06-22T09:08:45;28.10;99.90
12089;DHT22;6107;49.078;8.578;2023-06-22T09:11:11;28.40;99.90
12089;DHT22;6107;49.078;8.578;2023-06-22T09:13:37;28.40;99.90
12089;DHT22;6107;49.078;8.578;2023-06-22T09:16:02;28.40;99.90
12089;DHT22;6107;49.078;8.578;2023-06-22T09:18:28;28.20;99.90
12089;DHT22;6107;49.078;8.578;2023-06-22T09:20:53;28.20;99.90
12089;DHT22;6107;49.078;8.578;2023-06-22T09:23:19;28.00;99.90
12089;DHT22;6107;49.078;8.578;2023-06-22T09:25:44;28.00;99.90
12089;DHT22;6107;49.078;8.578;2023-06-22T09:28:12;27.90;99.90
12089;DHT22;6107;49.078;8.578;2023-06-22T09:30:38;28.00;99.90
12089;DHT22;6107;49.078;8.578;2023-06-22T09:33:03;28.10;99.90
12089;DHT22;6107;49.078;8.578;2023-06-22T09:35:29;28.30;99.90
12089;DHT22;6107;49.078;8.578;2023-06-22T09:37:54;28.80;99.90
12089;DHT22;6107;49.078;8.578;2023-06-22T09:40:20;29.30;99.90
12089;DHT22;6107;49.078;8.578;2023-06-22T09:42:45;29.30;99.90
12089;DHT22;6107;49.078;8.578;2023-06-22T09:45:11;29.10;99.90
12089;DHT22;6107;49.078;8.578;2023-06-22T09:47:37;29.60;99.90
12089;DHT22;6107;49.078;8.578;2023-06-22T09:50:03;29.70;99.90
12089;DHT22;6107;49.078;8.578;2023-06-22T09:52:28;29.70;99.90
12089;DHT22;6107;49.078;8.578;2023-06-22T09:54:54;29.40;99.90
12089;DHT22;6107;49.078;8.578;2023-06-22T09:57:19;29.50;99.90
12089;DHT22;6107;49.078;8.578;2023-06-22T09:59:45;29.40;99.90
12089;DHT22;6107;49.078;8.578;2023-06-22T10:02:10;29.50;99.90
12089;DHT22;6107;49.078;8.578;2023-06-22T10:04:36;29.70;99.90
12089;DHT22;6107;49.078;8.578;2023-06-22T10:07:02;29.90;99.90
12089;DHT22;6107;49.078;8.578;2023-06-22T10:09:28;30.00;99.90
12089;DHT22;6107;49.078;8.578;2023-06-22T10:11:53;30.30;99.90
12089;DHT22;6107;49.078;8.578;2023-06-22T10:14:19;30.40;99.90
12089;DHT22;6107;49.078;8.578;2023-06-22T10:16:44;30.10;99.90
12089;DHT22;6107;49.078;8.578;2023-06-22T10:19:10;29.80;99.90
12089;DHT22;6107;49.078;8.578;2023-06-22T10:21:35;29.40;99.90
12089;DHT22;6107;49.078;8.578;2023-06-22T10:24:01;29.40;99.90
12089;DHT22;6107;49.078;8.578;2023-06-22T10:26:34;29.40;99.90
12089;DHT22;6107;49.078;8.578;2023-06-22T10:29:04;29.40;99.90
12089;DHT22;6107;49.078;8.578;2023-06-22T10:31:29;29.30;99.90
12089;DHT22;6107;49.078;8.578;2023-06-22T10:33:55;29.40;99.90
12089;DHT22;6107;49.078;8.578;2023-06-22T10:36:22;29.50;99.90
12089;DHT22;6107;49.078;8.578;2023-06-22T10:38:48;29.70;99.90
12089;DHT22;6107;49.078;8.578;2023-06-22T10:41:14;29.80;99.90
12089;DHT22;6107;49.078;8.578;2023-06-22T10:43:40;29.60;99.90
12089;DHT22;6107;49.078;8.578;2023-06-22T10:46:06;29.70;99.90
12089;DHT22;6107;49.078;8.578;2023-06-22T10:48:32;29.70;99.90
12089;DHT22;6107;49.078;8.578;2023-06-22T10:50:57;29.80;99.90
12089;DHT22;6107;49.078;8.578;2023-06-22T10:53:23;29.80;99.90
12089;DHT22;6107;49.078;8.578;2023-06-22T10:55:49;29.70;99.90
12089;DHT22;6107;49.078;8.578;2023-06-22T10:58:14;29.80;99.90
12089;DHT22;6107;49.078;8.578;2023-06-22T11:00:40;29.80;99.90
12089;DHT22;6107;49.078;8.578;2023-06-22T11:03:06;29.60;99.90
12089;DHT22;6107;49.078;8.578;2023-06-22T11:05:31;29.60;99.90
12089;DHT22;6107;49.078;8.578;2023-06-22T11:07:57;29.70;99.90
12089;DHT22;6107;49.078;8.578;2023-06-22T11:10:23;29.80;99.90
12089;DHT22;6107;49.078;8.578;2023-06-22T11:12:48;29.80;99.90
12089;DHT22;6107;49.078;8.578;2023-06-22T11:15:14;30.00;99.90
12089;DHT22;6107;49.078;8.578;2023-06-22T11:17:39;29.80;99.90
12089;DHT22;6107;49.078;8.578;2023-06-22T11:20:05;29.80;99.90
12089;DHT22;6107;49.078;8.578;2023-06-22T11:22:37;30.00;99.90
12089;DHT22;6107;49.078;8.578;2023-06-22T11:25:02;30.00;99.90
12089;DHT22;6107;49.078;8.578;2023-06-22T11:27:28;30.00;99.90
12089;DHT22;6107;49.078;8.578;2023-06-22T11:29:54;30.00;99.90
12089;DHT22;6107;49.078;8.578;2023-06-22T11:32:19;29.90;99.90
12089;DHT22;6107;49.078;8.578;2023-06-22T11:34:45;29.80;99.90
12089;DHT22;6107;49.078;8.578;2023-06-22T11:37:10;29.70;99.90
12089;DHT22;6107;49.078;8.578;2023-06-22T11:39:36;30.00;99.90
12089;DHT22;6107;49.078;8.578;2023-06-22T11:42:01;30.10;99.90
12089;DHT22;6107;49.078;8.578;2023-06-22T11:44:27;30.10;99.90
12089;DHT22;6107;49.078;8.578;2023-06-22T11:46:52;30.20;99.90
12089;DHT22;6107;49.078;8.578;2023-06-22T11:49:18;30.10;99.90
12089;DHT22;6107;49.078;8.578;2023-06-22T11:51:43;30.00;99.90
12089;DHT22;6107;49.078;8.578;2023-06-22T11:54:09;29.90;99.90
12089;DHT22;6107;49.078;8.578;2023-06-22T11:56:34;29.70;99.90
12089;DHT22;6107;49.078;8.578;2023-06-22T11:59:00;29.70;99.90
12089;DHT22;6107;49.078;8.578;2023-06-22T12:01:25;29.60;99.90
12089;DHT22;6107;49.078;8.578;2023-06-22T12:03:51;29.50;99.90
12089;DHT22;6107;49.078;8.578;2023-06-22T12:06:17;29.80;99.90
12089;DHT22;6107;49.078;8.578;2023-06-22T12:08:43;29.90;99.90
12089;DHT22;6107;49.078;8.578;2023-06-22T12:11:08;29.90;99.90
12089;DHT22;6107;49.078;8.578;2023-06-22T12:13:34;30.20;99.90
12089;DHT22;6107;49.078;8.578;2023-06-22T12:15:59;30.50;99.90
12089;DHT22;6107;49.078;8.578;2023-06-22T12:18:25;30.70;99.90
12089;DHT22;6107;49.078;8.578;2023-06-22T12:20:50;30.60;99.90
12089;DHT22;6107;49.078;8.578;2023-06-22T12:23:16;30.50;99.90
12089;DHT22;6107;49.078;8.578;2023-06-22T12:25:41;30.60;99.90
12089;DHT22;6107;49.078;8.578;2023-06-22T12:28:07;30.90;99.90
12089;DHT22;6107;49.078;8.578;2023-06-22T12:30:33;31.10;99.90
12089;DHT22;6107;49.078;8.578;2023-06-22T12:32:59;31.10;99.90
12089;DHT22;6107;49.078;8.578;2023-06-22T12:35:24;31.20;99.90
12089;DHT22;6107;49.078;8.578;2023-06-22T12:37:50;31.10;99.90
12089;DHT22;6107;49.078;8.578;2023-06-22T12:40:15;31.20;99.90
12089;DHT22;6107;49.078;8.578;2023-06-22T12:42:41;31.60;99.90
12089;DHT22;6107;49.078;8.578;2023-06-22T12:45:08;31.80;99.90
12089;DHT22;6107;49.078;8.578;2023-06-22T12:47:33;31.90;99.90
12089;DHT22;6107;49.078;8.578;2023-06-22T12:49:59;31.30;99.90
12089;DHT22;6107;49.078;8.578;2023-06-22T12:52:24;31.10;99.90
12089;DHT22;6107;49.078;8.578;2023-06-22T12:54:50;31.20;99.90
12089;DHT22;6107;49.078;8.578;2023-06-22T12:57:16;31.10;99.90
12089;DHT22;6107;49.078;8.578;2023-06-22T12:59:43;31.30;99.90
12089;DHT22;6107;49.078;8.578;2023-06-22T13:02:08;31.20;99.90
12089;DHT22;6107;49.078;8.578;2023-06-22T13:04:33;31.20;99.90
12089;DHT22;6107;49.078;8.578;2023-06-22T13:07:00;31.40;99.90
12089;DHT22;6107;49.078;8.578;2023-06-22T13:09:25;31.30;99.90
12089;DHT22;6107;49.078;8.578;2023-06-22T13:11:51;31.60;99.90
12089;DHT22;6107;49.078;8.578;2023-06-22T13:14:18;31.80;99.90
12089;DHT22;6107;49.078;8.578;2023-06-22T13:16:43;32.60;99.90
12089;DHT22;6107;49.078;8.578;2023-06-22T13:19:09;33.10;99.90
12089;DHT22;6107;49.078;8.578;2023-06-22T13:21:34;33.50;99.90
12089;DHT22;6107;49.078;8.578;2023-06-22T13:26:26;32.70;99.90
12089;DHT22;6107;49.078;8.578;2023-06-22T13:28:54;32.70;99.90
12089;DHT22;6107;49.078;8.578;2023-06-22T13:31:19;33.00;99.90
12089;DHT22;6107;49.078;8.578;2023-06-22T13:33:45;33.40;99.90
12089;DHT22;6107;49.078;8.578;2023-06-22T13:36:13;34.00;99.90
12089;DHT22;6107;49.078;8.578;2023-06-22T13:38:38;33.70;99.90
12089;DHT22;6107;49.078;8.578;2023-06-22T13:41:05;33.00;99.90
12089;DHT22;6107;49.078;8.578;2023-06-22T13:43:30;33.10;99.90
12089;DHT22;6107;49.078;8.578;2023-06-22T13:45:56;33.20;99.90
12089;DHT22;6107;49.078;8.578;2023-06-22T13:48:22;33.50;99.90
12089;DHT22;6107;49.078;8.578;2023-06-22T13:50:48;33.50;99.90
12089;DHT22;6107;49.078;8.578;2023-06-22T13:53:14;33.60;99.90
12089;DHT22;6107;49.078;8.578;2023-06-22T13:55:40;33.60;99.90
12089;DHT22;6107;49.078;8.578;2023-06-22T13:58:06;33.40;99.90
12089;DHT22;6107;49.078;8.578;2023-06-22T14:00:32;32.60;99.90
12089;DHT22;6107;49.078;8.578;2023-06-22T14:02:57;32.60;99.90
12089;DHT22;6107;49.078;8.578;2023-06-22T14:05:23;32.70;99.90
12089;DHT22;6107;49.078;8.578;2023-06-22T14:07:49;32.40;99.90
12089;DHT22;6107;49.078;8.578;2023-06-22T14:10:14;32.20;99.90
12089;DHT22;6107;49.078;8.578;2023-06-22T14:12:40;32.00;99.90
12089;DHT22;6107;49.078;8.578;2023-06-22T14:15:05;31.90;99.90
12089;DHT22;6107;49.078;8.578;2023-06-22T14:17:31;31.90;99.90
12089;DHT22;6107;49.078;8.578;2023-06-22T14:19:56;31.50;99.90
12089;DHT22;6107;49.078;8.578;2023-06-22T14:22:22;31.10;99.90
12089;DHT22;6107;49.078;8.578;2023-06-22T14:24:48;30.90;99.90
12089;DHT22;6107;49.078;8.578;2023-06-22T14:27:14;30.70;99.90
12089;DHT22;6107;49.078;8.578;2023-06-22T14:29:40;30.60;99.90
12089;DHT22;6107;49.078;8.578;2023-06-22T14:32:07;30.30;99.90
12089;DHT22;6107;49.078;8.578;2023-06-22T14:34:33;30.00;99.90
12089;DHT22;6107;49.078;8.578;2023-06-22T14:37:01;30.10;99.90
12089;DHT22;6107;49.078;8.578;2023-06-22T14:39:27;30.30;99.90
12089;DHT22;6107;49.078;8.578;2023-06-22T14:41:52;30.30;99.90
12089;DHT22;6107;49.078;8.578;2023-06-22T14:44:18;30.30;99.90
12089;DHT22;6107;49.078;8.578;2023-06-22T14:46:44;30.30;99.90
12089;DHT22;6107;49.078;8.578;2023-06-22T14:49:09;30.40;99.90
12089;DHT22;6107;49.078;8.578;2023-06-22T14:51:35;30.70;99.90
12089;DHT22;6107;49.078;8.578;2023-06-22T14:54:00;30.90;99.90
12089;DHT22;6107;49.078;8.578;2023-06-22T14:56:26;31.20;99.90
12089;DHT22;6107;49.078;8.578;2023-06-22T15:01:17;30.90;99.90
12089;DHT22;6107;49.078;8.578;2023-06-22T15:08:37;30.60;99.90
12089;DHT22;6107;49.078;8.578;2023-06-22T15:11:04;30.40;99.90
12089;DHT22;6107;49.078;8.578;2023-06-22T15:13:30;30.30;99.90
12089;DHT22;6107;49.078;8.578;2023-06-22T15:15:59;30.60;99.90
12089;DHT22;6107;49.078;8.578;2023-06-22T15:18:25;31.00;99.90
12089;DHT22;6107;49.078;8.578;2023-06-22T15:20:51;31.00;99.90
12089;DHT22;6107;49.078;8.578;2023-06-22T15:23:17;32.00;99.90
12089;DHT22;6107;49.078;8.578;2023-06-22T15:25:42;32.00;99.90
12089;DHT22;6107;49.078;8.578;2023-06-22T15:28:09;32.40;99.90
12089;DHT22;6107;49.078;8.578;2023-06-22T15:30:35;32.70;99.90
12089;DHT22;6107;49.078;8.578;2023-06-22T15:33:01;32.80;99.90
12089;DHT22;6107;49.078;8.578;2023-06-22T15:35:26;33.00;99.90
12089;DHT22;6107;49.078;8.578;2023-06-22T15:37:52;32.00;99.90
12089;DHT22;6107;49.078;8.578;2023-06-22T15:40:17;32.80;99.90
12089;DHT22;6107;49.078;8.578;2023-06-22T15:42:44;32.70;99.90
12089;DHT22;6107;49.078;8.578;2023-06-22T15:45:11;32.80;99.90
12089;DHT22;6107;49.078;8.578;2023-06-22T15:47:36;32.40;99.90
12089;DHT22;6107;49.078;8.578;2023-06-22T15:50:03;32.40;99.90
12089;DHT22;6107;49.078;8.578;2023-06-22T15:52:28;32.70;99.90
12089;DHT22;6107;49.078;8.578;2023-06-22T15:57:22;32.20;99.90
12089;DHT22;6107;49.078;8.578;2023-06-22T15:59:48;32.50;99.90
12089;DHT22;6107;49.078;8.578;2023-06-22T16:02:13;32.70;99.90
12089;DHT22;6107;49.078;8.578;2023-06-22T16:04:39;32.40;99.90
12089;DHT22;6107;49.078;8.578;2023-06-22T16:07:04;32.40;99.90
12089;DHT22;6107;49.078;8.578;2023-06-22T16:09:31;32.30;99.90
12089;DHT22;6107;49.078;8.578;2023-06-22T16:11:56;32.30;99.90
12089;DHT22;6107;49.078;8.578;2023-06-22T16:14:22;32.80;99.90
12089;DHT22;6107;49.078;8.578;2023-06-22T16:16:48;32.50;99.90
12089;DHT22;6107;49.078;8.578;2023-06-22T16:19:14;32.60;99.90
12089;DHT22;6107;49.078;8.578;2023-06-22T16:21:41;33.10;99.90